sensor_id;sensor_type;location;lat;lon;timestamp;P1;durP1;ratioP1;P2;durP2;ratioP2
77581;SDS011;66726;52.388;9.986;2023-12-29T00:02:24;4.90;;;1.80;;
77581;SDS011;66726;52.388;9.986;2023-12-29T00:04:52;5.40;;;2.00;;
77581;SDS011;66726;52.388;9.986;2023-12-29T00:07:20;5.30;;;1.90;;
77581;SDS011;66726;52.388;9.986;2023-12-29T00:09:50;4.97;;;1.93;;
77581;SDS011;66726;52.388;9.986;2023-12-29T00:12:18;4.60;;;1.80;;
77581;SDS011;66726;52.388;9.986;2023-12-29T00:14:46;9.10;;;2.40;;
77581;SDS011;66726;52.388;9.986;2023-12-29T00:17:15;5.37;;;1.80;;
77581;SDS011;66726;52.388;9.986;2023-12-29T00:19:44;4.93;;;2.00;;
77581;SDS011;66726;52.388;9.986;2023-12-29T00:22:12;4.47;;;1.90;;
77581;SDS011;66726;52.388;9.986;2023-12-29T00:24:40;6.20;;;2.10;;
77581;SDS011;66726;52.388;9.986;2023-12-29T00:27:10;6.50;;;1.90;;
77581;SDS011;66726;52.388;9.986;2023-12-29T00:29:38;3.93;;;1.77;;
77581;SDS011;66726;52.388;9.986;2023-12-29T00:32:07;5.13;;;1.90;;
77581;SDS011;66726;52.388;9.986;2023-12-29T00:34:35;5.00;;;1.97;;
77581;SDS011;66726;52.388;9.986;2023-12-29T00:37:04;4.93;;;2.30;;
77581;SDS011;66726;52.388;9.986;2023-12-29T00:39:34;6.07;;;1.73;;
77581;SDS011;66726;52.388;9.986;2023-12-29T00:42:06;3.77;;;1.90;;
77581;SDS011;66726;52.388;9.986;2023-12-29T00:44:36;7.13;;;1.73;;
77581;SDS011;66726;52.388;9.986;2023-12-29T00:47:04;5.70;;;1.70;;
77581;SDS011;66726;52.388;9.986;2023-12-29T00:49:32;7.10;;;1.50;;
77581;SDS011;66726;52.388;9.986;2023-12-29T00:52:01;5.23;;;1.73;;
77581;SDS011;66726;52.388;9.986;2023-12-29T00:54:29;5.50;;;2.03;;
77581;SDS011;66726;52.388;9.986;2023-12-29T00:56:57;5.33;;;1.80;;
77581;SDS011;66726;52.388;9.986;2023-12-29T00:59:26;6.77;;;1.97;;
77581;SDS011;66726;52.388;9.986;2023-12-29T01:01:55;5.83;;;2.00;;
77581;SDS011;66726;52.388;9.986;2023-12-29T01:04:23;6.30;;;2.03;;
77581;SDS011;66726;52.388;9.986;2023-12-29T01:06:52;6.30;;;1.70;;
77581;SDS011;66726;52.388;9.986;2023-12-29T01:09:20;4.23;;;1.50;;
77581;SDS011;66726;52.388;9.986;2023-12-29T01:11:49;6.70;;;2.00;;
77581;SDS011;66726;52.388;9.986;2023-12-29T01:14:17;7.07;;;2.13;;
77581;SDS011;66726;52.388;9.986;2023-12-29T01:16:45;6.80;;;1.90;;
77581;SDS011;66726;52.388;9.986;2023-12-29T01:19:14;4.33;;;1.90;;
77581;SDS011;66726;52.388;9.986;2023-12-29T01:21:43;7.40;;;2.03;;
77581;SDS011;66726;52.388;9.986;2023-12-29T01:24:11;4.20;;;1.67;;
77581;SDS011;66726;52.388;9.986;2023-12-29T01:26:42;4.53;;;2.07;;
77581;SDS011;66726;52.388;9.986;2023-12-29T01:29:10;3.83;;;1.73;;
77581;SDS011;66726;52.388;9.986;2023-12-29T01:31:38;3.83;;;1.73;;
77581;SDS011;66726;52.388;9.986;2023-12-29T01:34:07;4.97;;;1.60;;
77581;SDS011;66726;52.388;9.986;2023-12-29T01:36:36;3.37;;;2.00;;
77581;SDS011;66726;52.388;9.986;2023-12-29T01:39:05;5.80;;;2.07;;
77581;SDS011;66726;52.388;9.986;2023-12-29T01:41:33;5.43;;;1.70;;
77581;SDS011;66726;52.388;9.986;2023-12-29T01:44:20;7.33;;;2.03;;
77581;SDS011;66726;52.388;9.986;2023-12-29T01:46:50;6.33;;;1.80;;
77581;SDS011;66726;52.388;9.986;2023-12-29T01:49:20;4.30;;;1.90;;
77581;SDS011;66726;52.388;9.986;2023-12-29T01:51:53;5.23;;;1.93;;
77581;SDS011;66726;52.388;9.986;2023-12-29T01:54:25;4.10;;;1.90;;
77581;SDS011;66726;52.388;9.986;2023-12-29T01:56:58;4.97;;;1.90;;
77581;SDS011;66726;52.388;9.986;2023-12-29T01:59:29;5.03;;;2.40;;
77581;SDS011;66726;52.388;9.986;2023-12-29T02:01:58;6.73;;;1.90;;
77581;SDS011;66726;52.388;9.986;2023-12-29T02:04:28;3.67;;;1.60;;
77581;SDS011;66726;52.388;9.986;2023-12-29T02:06:59;7.27;;;1.87;;
77581;SDS011;66726;52.388;9.986;2023-12-29T02:09:27;4.67;;;1.93;;
77581;SDS011;66726;52.388;9.986;2023-12-29T02:11:55;6.27;;;1.90;;
77581;SDS011;66726;52.388;9.986;2023-12-29T02:14:23;4.17;;;1.50;;
77581;SDS011;66726;52.388;9.986;2023-12-29T02:16:54;4.37;;;1.70;;
77581;SDS011;66726;52.388;9.986;2023-12-29T02:19:37;7.53;;;1.70;;
77581;SDS011;66726;52.388;9.986;2023-12-29T02:22:09;3.63;;;2.00;;
77581;SDS011;66726;52.388;9.986;2023-12-29T02:24:38;8.90;;;2.20;;
77581;SDS011;66726;52.388;9.986;2023-12-29T02:27:18;8.83;;;2.23;;
77581;SDS011;66726;52.388;9.986;2023-12-29T02:30:07;5.20;;;1.77;;
77581;SDS011;66726;52.388;9.986;2023-12-29T02:32:39;7.33;;;1.70;;
77581;SDS011;66726;52.388;9.986;2023-12-29T02:35:10;8.00;;;2.23;;
77581;SDS011;66726;52.388;9.986;2023-12-29T02:37:42;4.27;;;1.83;;
77581;SDS011;66726;52.388;9.986;2023-12-29T02:40:11;6.27;;;1.97;;
77581;SDS011;66726;52.388;9.986;2023-12-29T02:42:45;5.47;;;1.63;;
77581;SDS011;66726;52.388;9.986;2023-12-29T02:45:14;2.97;;;1.40;;
77581;SDS011;66726;52.388;9.986;2023-12-29T02:47:43;7.17;;;1.80;;
77581;SDS011;66726;52.388;9.986;2023-12-29T02:50:12;6.70;;;2.30;;
77581;SDS011;66726;52.388;9.986;2023-12-29T02:52:40;4.13;;;1.67;;
77581;SDS011;66726;52.388;9.986;2023-12-29T02:55:08;4.57;;;1.60;;
77581;SDS011;66726;52.388;9.986;2023-12-29T02:57:36;3.70;;;1.63;;
77581;SDS011;66726;52.388;9.986;2023-12-29T03:00:06;2.87;;;1.50;;
77581;SDS011;66726;52.388;9.986;2023-12-29T03:02:35;7.23;;;2.27;;
77581;SDS011;66726;52.388;9.986;2023-12-29T03:05:04;3.27;;;1.57;;
77581;SDS011;66726;52.388;9.986;2023-12-29T03:07:34;5.33;;;1.70;;
77581;SDS011;66726;52.388;9.986;2023-12-29T03:10:02;6.00;;;1.63;;
77581;SDS011;66726;52.388;9.986;2023-12-29T03:12:31;5.17;;;1.67;;
77581;SDS011;66726;52.388;9.986;2023-12-29T03:15:00;5.50;;;1.53;;
77581;SDS011;66726;52.388;9.986;2023-12-29T03:17:29;5.63;;;1.60;;
77581;SDS011;66726;52.388;9.986;2023-12-29T03:19:58;5.00;;;1.63;;
77581;SDS011;66726;52.388;9.986;2023-12-29T03:22:27;3.80;;;1.43;;
77581;SDS011;66726;52.388;9.986;2023-12-29T03:24:55;4.20;;;1.50;;
77581;SDS011;66726;52.388;9.986;2023-12-29T03:27:23;4.93;;;1.47;;
77581;SDS011;66726;52.388;9.986;2023-12-29T03:29:51;3.87;;;1.53;;
77581;SDS011;66726;52.388;9.986;2023-12-29T03:32:19;4.87;;;1.60;;
77581;SDS011;66726;52.388;9.986;2023-12-29T03:34:49;3.73;;;1.47;;
77581;SDS011;66726;52.388;9.986;2023-12-29T03:37:17;5.03;;;1.60;;
77581;SDS011;66726;52.388;9.986;2023-12-29T03:39:46;5.77;;;1.60;;
77581;SDS011;66726;52.388;9.986;2023-12-29T03:42:14;5.57;;;1.63;;
77581;SDS011;66726;52.388;9.986;2023-12-29T03:44:42;4.87;;;1.43;;
77581;SDS011;66726;52.388;9.986;2023-12-29T03:47:10;5.77;;;1.50;;
77581;SDS011;66726;52.388;9.986;2023-12-29T03:49:38;6.30;;;1.73;;
77581;SDS011;66726;52.388;9.986;2023-12-29T03:52:08;6.13;;;1.90;;
77581;SDS011;66726;52.388;9.986;2023-12-29T03:54:36;4.30;;;1.60;;
77581;SDS011;66726;52.388;9.986;2023-12-29T03:57:04;2.83;;;1.60;;
77581;SDS011;66726;52.388;9.986;2023-12-29T03:59:33;2.23;;;1.27;;
77581;SDS011;66726;52.388;9.986;2023-12-29T04:02:04;4.27;;;1.13;;
77581;SDS011;66726;52.388;9.986;2023-12-29T04:04:35;1.10;;;0.90;;
77581;SDS011;66726;52.388;9.986;2023-12-29T04:07:04;2.87;;;1.43;;
77581;SDS011;66726;52.388;9.986;2023-12-29T04:09:34;2.77;;;0.90;;
77581;SDS011;66726;52.388;9.986;2023-12-29T04:12:03;4.80;;;1.30;;
77581;SDS011;66726;52.388;9.986;2023-12-29T04:14:31;3.00;;;1.17;;
77581;SDS011;66726;52.388;9.986;2023-12-29T04:16:59;3.57;;;1.27;;
77581;SDS011;66726;52.388;9.986;2023-12-29T04:19:29;2.70;;;0.90;;
77581;SDS011;66726;52.388;9.986;2023-12-29T04:21:58;2.60;;;1.40;;
77581;SDS011;66726;52.388;9.986;2023-12-29T04:24:26;4.37;;;1.23;;
77581;SDS011;66726;52.388;9.986;2023-12-29T04:26:55;2.43;;;1.30;;
77581;SDS011;66726;52.388;9.986;2023-12-29T04:29:23;4.40;;;1.50;;
77581;SDS011;66726;52.388;9.986;2023-12-29T04:31:52;4.00;;;1.27;;
77581;SDS011;66726;52.388;9.986;2023-12-29T04:34:20;2.53;;;1.40;;
77581;SDS011;66726;52.388;9.986;2023-12-29T04:36:49;5.30;;;1.53;;
77581;SDS011;66726;52.388;9.986;2023-12-29T04:39:17;3.87;;;1.37;;
77581;SDS011;66726;52.388;9.986;2023-12-29T04:41:45;3.90;;;1.30;;
77581;SDS011;66726;52.388;9.986;2023-12-29T04:44:14;3.43;;;1.40;;
77581;SDS011;66726;52.388;9.986;2023-12-29T04:46:43;3.37;;;1.50;;
77581;SDS011;66726;52.388;9.986;2023-12-29T04:49:13;3.70;;;1.20;;
77581;SDS011;66726;52.388;9.986;2023-12-29T04:51:42;2.70;;;1.40;;
77581;SDS011;66726;52.388;9.986;2023-12-29T04:54:10;3.37;;;1.30;;
77581;SDS011;66726;52.388;9.986;2023-12-29T04:56:38;4.63;;;1.40;;
77581;SDS011;66726;52.388;9.986;2023-12-29T04:59:06;3.30;;;1.50;;
77581;SDS011;66726;52.388;9.986;2023-12-29T05:01:36;3.33;;;1.47;;
77581;SDS011;66726;52.388;9.986;2023-12-29T05:04:04;3.17;;;1.30;;
77581;SDS011;66726;52.388;9.986;2023-12-29T05:06:32;3.13;;;1.10;;
77581;SDS011;66726;52.388;9.986;2023-12-29T05:09:00;2.40;;;1.20;;
77581;SDS011;66726;52.388;9.986;2023-12-29T05:11:29;3.40;;;1.50;;
77581;SDS011;66726;52.388;9.986;2023-12-29T05:13:58;4.53;;;1.23;;
77581;SDS011;66726;52.388;9.986;2023-12-29T05:16:26;3.33;;;1.30;;
77581;SDS011;66726;52.388;9.986;2023-12-29T05:18:56;2.67;;;1.30;;
77581;SDS011;66726;52.388;9.986;2023-12-29T05:21:24;3.03;;;1.13;;
77581;SDS011;66726;52.388;9.986;2023-12-29T05:23:53;2.13;;;1.00;;
77581;SDS011;66726;52.388;9.986;2023-12-29T05:26:21;2.67;;;1.20;;
77581;SDS011;66726;52.388;9.986;2023-12-29T05:28:49;3.33;;;1.47;;
77581;SDS011;66726;52.388;9.986;2023-12-29T05:31:17;2.93;;;1.30;;
77581;SDS011;66726;52.388;9.986;2023-12-29T05:33:45;3.07;;;1.10;;
77581;SDS011;66726;52.388;9.986;2023-12-29T05:36:15;2.50;;;1.30;;
77581;SDS011;66726;52.388;9.986;2023-12-29T05:38:45;2.67;;;1.30;;
77581;SDS011;66726;52.388;9.986;2023-12-29T05:41:13;3.50;;;1.47;;
77581;SDS011;66726;52.388;9.986;2023-12-29T05:43:42;4.40;;;1.57;;
77581;SDS011;66726;52.388;9.986;2023-12-29T05:46:10;3.43;;;1.50;;
77581;SDS011;66726;52.388;9.986;2023-12-29T05:48:39;4.13;;;1.67;;
77581;SDS011;66726;52.388;9.986;2023-12-29T05:51:08;4.57;;;1.43;;
77581;SDS011;66726;52.388;9.986;2023-12-29T05:53:38;3.90;;;1.60;;
77581;SDS011;66726;52.388;9.986;2023-12-29T05:56:07;3.80;;;1.80;;
77581;SDS011;66726;52.388;9.986;2023-12-29T05:58:36;4.53;;;1.50;;
77581;SDS011;66726;52.388;9.986;2023-12-29T06:01:04;4.10;;;1.60;;
77581;SDS011;66726;52.388;9.986;2023-12-29T06:03:32;6.03;;;1.70;;
77581;SDS011;66726;52.388;9.986;2023-12-29T06:06:01;3.53;;;1.60;;
77581;SDS011;66726;52.388;9.986;2023-12-29T06:08:29;3.77;;;1.73;;
77581;SDS011;66726;52.388;9.986;2023-12-29T06:10:59;3.70;;;1.60;;
77581;SDS011;66726;52.388;9.986;2023-12-29T06:13:27;3.07;;;1.87;;
77581;SDS011;66726;52.388;9.986;2023-12-29T06:15:56;5.53;;;2.13;;
77581;SDS011;66726;52.388;9.986;2023-12-29T06:18:24;8.67;;;2.10;;
77581;SDS011;66726;52.388;9.986;2023-12-29T06:20:52;5.53;;;2.00;;
77581;SDS011;66726;52.388;9.986;2023-12-29T06:23:21;4.10;;;1.80;;
77581;SDS011;66726;52.388;9.986;2023-12-29T06:25:49;4.27;;;1.70;;
77581;SDS011;66726;52.388;9.986;2023-12-29T06:28:18;9.53;;;2.27;;
77581;SDS011;66726;52.388;9.986;2023-12-29T06:30:47;4.40;;;1.80;;
77581;SDS011;66726;52.388;9.986;2023-12-29T06:33:15;6.17;;;2.00;;
77581;SDS011;66726;52.388;9.986;2023-12-29T06:35:47;5.43;;;1.90;;
77581;SDS011;66726;52.388;9.986;2023-12-29T06:38:15;5.43;;;2.03;;
77581;SDS011;66726;52.388;9.986;2023-12-29T06:40:43;5.53;;;2.40;;
77581;SDS011;66726;52.388;9.986;2023-12-29T06:43:11;7.17;;;2.43;;
77581;SDS011;66726;52.388;9.986;2023-12-29T06:45:41;6.93;;;2.67;;
77581;SDS011;66726;52.388;9.986;2023-12-29T06:48:09;8.80;;;2.53;;
77581;SDS011;66726;52.388;9.986;2023-12-29T06:50:38;7.10;;;2.30;;
77581;SDS011;66726;52.388;9.986;2023-12-29T06:53:06;5.97;;;2.23;;
77581;SDS011;66726;52.388;9.986;2023-12-29T06:55:34;9.67;;;2.20;;
77581;SDS011;66726;52.388;9.986;2023-12-29T06:58:03;7.07;;;2.50;;
77581;SDS011;66726;52.388;9.986;2023-12-29T07:00:32;6.50;;;2.20;;
77581;SDS011;66726;52.388;9.986;2023-12-29T07:03:02;5.83;;;2.60;;
77581;SDS011;66726;52.388;9.986;2023-12-29T07:05:31;7.90;;;2.67;;
77581;SDS011;66726;52.388;9.986;2023-12-29T07:07:59;6.90;;;2.60;;
77581;SDS011;66726;52.388;9.986;2023-12-29T07:10:28;8.10;;;2.30;;
77581;SDS011;66726;52.388;9.986;2023-12-29T07:12:56;8.40;;;2.93;;
77581;SDS011;66726;52.388;9.986;2023-12-29T07:15:24;6.30;;;2.33;;
77581;SDS011;66726;52.388;9.986;2023-12-29T07:17:52;8.23;;;2.67;;
77581;SDS011;66726;52.388;9.986;2023-12-29T07:20:22;7.43;;;2.33;;
77581;SDS011;66726;52.388;9.986;2023-12-29T07:22:51;6.47;;;2.10;;
77581;SDS011;66726;52.388;9.986;2023-12-29T07:25:19;7.30;;;2.20;;
77581;SDS011;66726;52.388;9.986;2023-12-29T07:27:47;5.27;;;2.03;;
77581;SDS011;66726;52.388;9.986;2023-12-29T07:30:16;5.53;;;2.27;;
77581;SDS011;66726;52.388;9.986;2023-12-29T07:32:44;8.63;;;2.40;;
77581;SDS011;66726;52.388;9.986;2023-12-29T07:35:13;5.77;;;2.17;;
77581;SDS011;66726;52.388;9.986;2023-12-29T07:37:47;7.97;;;2.93;;
77581;SDS011;66726;52.388;9.986;2023-12-29T07:40:15;10.07;;;2.53;;
77581;SDS011;66726;52.388;9.986;2023-12-29T07:42:44;8.50;;;2.40;;
77581;SDS011;66726;52.388;9.986;2023-12-29T07:45:16;12.33;;;2.60;;
77581;SDS011;66726;52.388;9.986;2023-12-29T07:47:45;7.83;;;2.10;;
77581;SDS011;66726;52.388;9.986;2023-12-29T07:50:12;9.33;;;2.47;;
77581;SDS011;66726;52.388;9.986;2023-12-29T07:52:42;7.83;;;2.53;;
77581;SDS011;66726;52.388;9.986;2023-12-29T07:55:11;9.87;;;2.57;;
77581;SDS011;66726;52.388;9.986;2023-12-29T07:57:43;8.73;;;2.63;;
77581;SDS011;66726;52.388;9.986;2023-12-29T08:00:13;10.27;;;2.70;;
77581;SDS011;66726;52.388;9.986;2023-12-29T08:02:42;8.03;;;2.40;;
77581;SDS011;66726;52.388;9.986;2023-12-29T08:05:11;6.23;;;1.90;;
77581;SDS011;66726;52.388;9.986;2023-12-29T08:07:41;10.70;;;2.20;;
77581;SDS011;66726;52.388;9.986;2023-12-29T08:10:09;9.73;;;2.50;;
77581;SDS011;66726;52.388;9.986;2023-12-29T08:12:39;7.90;;;2.63;;
77581;SDS011;66726;52.388;9.986;2023-12-29T08:15:07;13.20;;;2.77;;
77581;SDS011;66726;52.388;9.986;2023-12-29T08:17:36;6.63;;;2.60;;
77581;SDS011;66726;52.388;9.986;2023-12-29T08:20:05;10.70;;;2.87;;
77581;SDS011;66726;52.388;9.986;2023-12-29T08:22:35;8.73;;;2.40;;
77581;SDS011;66726;52.388;9.986;2023-12-29T08:25:04;9.33;;;2.60;;
77581;SDS011;66726;52.388;9.986;2023-12-29T08:27:34;7.47;;;2.67;;
77581;SDS011;66726;52.388;9.986;2023-12-29T08:30:02;7.73;;;2.60;;
77581;SDS011;66726;52.388;9.986;2023-12-29T08:32:32;10.27;;;2.90;;
77581;SDS011;66726;52.388;9.986;2023-12-29T08:35:00;9.20;;;2.37;;
77581;SDS011;66726;52.388;9.986;2023-12-29T08:37:29;10.63;;;2.43;;
77581;SDS011;66726;52.388;9.986;2023-12-29T08:39:59;8.43;;;2.30;;
77581;SDS011;66726;52.388;9.986;2023-12-29T08:42:28;8.33;;;2.80;;
77581;SDS011;66726;52.388;9.986;2023-12-29T08:44:58;7.97;;;2.90;;
77581;SDS011;66726;52.388;9.986;2023-12-29T08:47:27;10.47;;;2.93;;
77581;SDS011;66726;52.388;9.986;2023-12-29T08:49:55;7.93;;;2.83;;
77581;SDS011;66726;52.388;9.986;2023-12-29T08:52:23;7.47;;;2.40;;
77581;SDS011;66726;52.388;9.986;2023-12-29T08:54:51;5.87;;;2.03;;
77581;SDS011;66726;52.388;9.986;2023-12-29T08:57:19;6.50;;;2.23;;
77581;SDS011;66726;52.388;9.986;2023-12-29T08:59:47;7.47;;;2.60;;
77581;SDS011;66726;52.388;9.986;2023-12-29T09:02:17;13.27;;;2.10;;
77581;SDS011;66726;52.388;9.986;2023-12-29T09:04:45;11.87;;;3.17;;
77581;SDS011;66726;52.388;9.986;2023-12-29T09:07:13;7.67;;;2.77;;
77581;SDS011;66726;52.388;9.986;2023-12-29T09:09:42;12.03;;;2.50;;
77581;SDS011;66726;52.388;9.986;2023-12-29T09:12:10;8.80;;;2.37;;
77581;SDS011;66726;52.388;9.986;2023-12-29T09:14:38;6.53;;;2.20;;
77581;SDS011;66726;52.388;9.986;2023-12-29T09:17:07;9.57;;;2.50;;
77581;SDS011;66726;52.388;9.986;2023-12-29T09:19:36;8.50;;;2.33;;
77581;SDS011;66726;52.388;9.986;2023-12-29T09:22:06;11.23;;;2.70;;
77581;SDS011;66726;52.388;9.986;2023-12-29T09:24:34;8.93;;;2.67;;
77581;SDS011;66726;52.388;9.986;2023-12-29T09:27:03;8.40;;;2.20;;
77581;SDS011;66726;52.388;9.986;2023-12-29T09:29:32;8.17;;;2.40;;
77581;SDS011;66726;52.388;9.986;2023-12-29T09:32:00;8.70;;;2.20;;
77581;SDS011;66726;52.388;9.986;2023-12-29T09:34:28;14.40;;;2.97;;
77581;SDS011;66726;52.388;9.986;2023-12-29T09:36:58;9.67;;;2.40;;
77581;SDS011;66726;52.388;9.986;2023-12-29T09:39:26;9.33;;;2.20;;
77581;SDS011;66726;52.388;9.986;2023-12-29T09:41:56;7.90;;;2.63;;
77581;SDS011;66726;52.388;9.986;2023-12-29T09:44:27;8.83;;;2.27;;
77581;SDS011;66726;52.388;9.986;2023-12-29T09:47:01;9.43;;;2.77;;
77581;SDS011;66726;52.388;9.986;2023-12-29T09:49:38;5.93;;;1.73;;
77581;SDS011;66726;52.388;9.986;2023-12-29T09:52:10;4.77;;;1.83;;
77581;SDS011;66726;52.388;9.986;2023-12-29T09:54:42;8.07;;;2.30;;
77581;SDS011;66726;52.388;9.986;2023-12-29T09:57:12;4.53;;;2.27;;
77581;SDS011;66726;52.388;9.986;2023-12-29T09:59:40;9.23;;;2.50;;
77581;SDS011;66726;52.388;9.986;2023-12-29T10:02:12;8.73;;;2.40;;
77581;SDS011;66726;52.388;9.986;2023-12-29T10:04:43;5.73;;;1.90;;
77581;SDS011;66726;52.388;9.986;2023-12-29T10:07:15;4.93;;;2.13;;
77581;SDS011;66726;52.388;9.986;2023-12-29T10:09:51;6.17;;;2.50;;
77581;SDS011;66726;52.388;9.986;2023-12-29T10:12:24;5.37;;;1.97;;
77581;SDS011;66726;52.388;9.986;2023-12-29T10:14:57;6.93;;;2.17;;
77581;SDS011;66726;52.388;9.986;2023-12-29T10:17:36;2.97;;;1.20;;
77581;SDS011;66726;52.388;9.986;2023-12-29T10:20:24;4.07;;;1.40;;
77581;SDS011;66726;52.388;9.986;2023-12-29T10:23:09;5.03;;;1.60;;
77581;SDS011;66726;52.388;9.986;2023-12-29T10:25:40;3.97;;;1.50;;
77581;SDS011;66726;52.388;9.986;2023-12-29T10:28:09;3.70;;;1.43;;
77581;SDS011;66726;52.388;9.986;2023-12-29T10:30:37;3.53;;;1.53;;
77581;SDS011;66726;52.388;9.986;2023-12-29T10:33:06;4.23;;;1.80;;
77581;SDS011;66726;52.388;9.986;2023-12-29T10:35:36;6.57;;;1.93;;
77581;SDS011;66726;52.388;9.986;2023-12-29T10:38:10;4.63;;;1.60;;
77581;SDS011;66726;52.388;9.986;2023-12-29T10:40:40;5.03;;;1.90;;
77581;SDS011;66726;52.388;9.986;2023-12-29T10:43:10;7.97;;;2.00;;
77581;SDS011;66726;52.388;9.986;2023-12-29T10:45:38;3.50;;;1.87;;
77581;SDS011;66726;52.388;9.986;2023-12-29T10:48:06;6.53;;;2.13;;
77581;SDS011;66726;52.388;9.986;2023-12-29T10:50:42;6.80;;;1.80;;
77581;SDS011;66726;52.388;9.986;2023-12-29T10:53:13;6.30;;;2.23;;
77581;SDS011;66726;52.388;9.986;2023-12-29T10:55:43;4.00;;;2.30;;
77581;SDS011;66726;52.388;9.986;2023-12-29T10:58:11;7.07;;;2.10;;
77581;SDS011;66726;52.388;9.986;2023-12-29T11:00:43;5.27;;;2.30;;
77581;SDS011;66726;52.388;9.986;2023-12-29T11:03:12;4.40;;;2.00;;
77581;SDS011;66726;52.388;9.986;2023-12-29T11:05:43;5.47;;;1.90;;
77581;SDS011;66726;52.388;9.986;2023-12-29T11:08:16;8.17;;;2.20;;
77581;SDS011;66726;52.388;9.986;2023-12-29T11:10:47;6.57;;;2.10;;
77581;SDS011;66726;52.388;9.986;2023-12-29T11:13:17;3.50;;;1.83;;
77581;SDS011;66726;52.388;9.986;2023-12-29T11:15:46;4.63;;;1.83;;
77581;SDS011;66726;52.388;9.986;2023-12-29T11:18:15;6.27;;;1.83;;
77581;SDS011;66726;52.388;9.986;2023-12-29T11:20:45;2.10;;;1.50;;
77581;SDS011;66726;52.388;9.986;2023-12-29T11:23:15;3.03;;;1.70;;
77581;SDS011;66726;52.388;9.986;2023-12-29T11:25:45;3.27;;;1.60;;
77581;SDS011;66726;52.388;9.986;2023-12-29T11:28:14;3.23;;;1.67;;
77581;SDS011;66726;52.388;9.986;2023-12-29T11:30:43;2.70;;;1.33;;
77581;SDS011;66726;52.388;9.986;2023-12-29T11:33:12;3.10;;;1.50;;
77581;SDS011;66726;52.388;9.986;2023-12-29T11:35:47;3.43;;;1.43;;
77581;SDS011;66726;52.388;9.986;2023-12-29T11:38:28;2.20;;;1.23;;
77581;SDS011;66726;52.388;9.986;2023-12-29T11:41:18;2.53;;;1.20;;
77581;SDS011;66726;52.388;9.986;2023-12-29T11:43:55;1.70;;;1.27;;
77581;SDS011;66726;52.388;9.986;2023-12-29T11:46:34;1.97;;;1.30;;
77581;SDS011;66726;52.388;9.986;2023-12-29T11:49:05;2.20;;;1.47;;
77581;SDS011;66726;52.388;9.986;2023-12-29T11:51:34;3.17;;;1.67;;
77581;SDS011;66726;52.388;9.986;2023-12-29T11:54:07;3.73;;;1.80;;
77581;SDS011;66726;52.388;9.986;2023-12-29T11:56:36;2.50;;;1.20;;
77581;SDS011;66726;52.388;9.986;2023-12-29T11:59:16;3.30;;;1.37;;
77581;SDS011;66726;52.388;9.986;2023-12-29T12:01:47;3.90;;;1.20;;
77581;SDS011;66726;52.388;9.986;2023-12-29T12:04:36;2.27;;;1.20;;
77581;SDS011;66726;52.388;9.986;2023-12-29T12:07:08;3.03;;;1.30;;
77581;SDS011;66726;52.388;9.986;2023-12-29T12:09:42;2.43;;;1.20;;
77581;SDS011;66726;52.388;9.986;2023-12-29T12:12:11;2.20;;;1.00;;
77581;SDS011;66726;52.388;9.986;2023-12-29T12:14:43;1.33;;;1.20;;
77581;SDS011;66726;52.388;9.986;2023-12-29T12:17:28;2.37;;;1.20;;
77581;SDS011;66726;52.388;9.986;2023-12-29T12:20:00;3.03;;;1.57;;
77581;SDS011;66726;52.388;9.986;2023-12-29T12:22:31;3.47;;;1.30;;
77581;SDS011;66726;52.388;9.986;2023-12-29T12:25:06;2.63;;;1.30;;
77581;SDS011;66726;52.388;9.986;2023-12-29T12:27:36;2.97;;;1.20;;
77581;SDS011;66726;52.388;9.986;2023-12-29T12:30:06;2.40;;;1.37;;
77581;SDS011;66726;52.388;9.986;2023-12-29T12:32:37;2.60;;;1.57;;
77581;SDS011;66726;52.388;9.986;2023-12-29T12:35:13;2.83;;;1.33;;
77581;SDS011;66726;52.388;9.986;2023-12-29T12:37:45;2.83;;;1.53;;
77581;SDS011;66726;52.388;9.986;2023-12-29T12:40:25;1.43;;;1.30;;
77581;SDS011;66726;52.388;9.986;2023-12-29T12:42:54;1.67;;;1.23;;
77581;SDS011;66726;52.388;9.986;2023-12-29T12:45:23;2.23;;;1.47;;
77581;SDS011;66726;52.388;9.986;2023-12-29T12:47:59;2.10;;;1.60;;
77581;SDS011;66726;52.388;9.986;2023-12-29T12:50:31;3.87;;;1.50;;
77581;SDS011;66726;52.388;9.986;2023-12-29T12:52:59;1.87;;;1.10;;
77581;SDS011;66726;52.388;9.986;2023-12-29T12:55:36;2.27;;;1.20;;
77581;SDS011;66726;52.388;9.986;2023-12-29T12:58:05;2.33;;;1.67;;
77581;SDS011;66726;52.388;9.986;2023-12-29T13:00:34;1.60;;;1.37;;
77581;SDS011;66726;52.388;9.986;2023-12-29T13:03:03;1.70;;;1.33;;
77581;SDS011;66726;52.388;9.986;2023-12-29T13:05:32;1.20;;;1.10;;
77581;SDS011;66726;52.388;9.986;2023-12-29T13:08:02;1.40;;;1.17;;
77581;SDS011;66726;52.388;9.986;2023-12-29T13:10:33;2.07;;;1.07;;
77581;SDS011;66726;52.388;9.986;2023-12-29T13:13:03;2.87;;;1.10;;
77581;SDS011;66726;52.388;9.986;2023-12-29T13:15:31;2.27;;;1.40;;
77581;SDS011;66726;52.388;9.986;2023-12-29T13:17:59;2.63;;;1.53;;
77581;SDS011;66726;52.388;9.986;2023-12-29T13:20:28;2.07;;;1.50;;
77581;SDS011;66726;52.388;9.986;2023-12-29T13:22:56;2.00;;;1.27;;
77581;SDS011;66726;52.388;9.986;2023-12-29T13:25:25;2.17;;;1.30;;
77581;SDS011;66726;52.388;9.986;2023-12-29T13:27:55;2.03;;;1.53;;
77581;SDS011;66726;52.388;9.986;2023-12-29T13:30:26;3.00;;;2.27;;
77581;SDS011;66726;52.388;9.986;2023-12-29T13:32:54;2.30;;;1.47;;
77581;SDS011;66726;52.388;9.986;2023-12-29T13:35:24;1.70;;;1.20;;
77581;SDS011;66726;52.388;9.986;2023-12-29T13:38:01;2.97;;;1.93;;
77581;SDS011;66726;52.388;9.986;2023-12-29T13:40:44;2.30;;;1.60;;
77581;SDS011;66726;52.388;9.986;2023-12-29T13:43:21;3.33;;;2.20;;
77581;SDS011;66726;52.388;9.986;2023-12-29T13:45:52;2.53;;;1.93;;
77581;SDS011;66726;52.388;9.986;2023-12-29T13:48:20;4.07;;;3.40;;
77581;SDS011;66726;52.388;9.986;2023-12-29T13:50:49;18.47;;;10.93;;
77581;SDS011;66726;52.388;9.986;2023-12-29T13:53:18;19.90;;;11.43;;
77581;SDS011;66726;52.388;9.986;2023-12-29T13:55:47;12.57;;;7.77;;
77581;SDS011;66726;52.388;9.986;2023-12-29T13:58:15;10.63;;;7.70;;
77581;SDS011;66726;52.388;9.986;2023-12-29T14:00:46;7.87;;;5.70;;
77581;SDS011;66726;52.388;9.986;2023-12-29T14:03:27;4.97;;;3.10;;
77581;SDS011;66726;52.388;9.986;2023-12-29T14:06:04;5.47;;;4.30;;
77581;SDS011;66726;52.388;9.986;2023-12-29T14:08:38;6.37;;;4.73;;
77581;SDS011;66726;52.388;9.986;2023-12-29T14:11:11;14.10;;;11.10;;
77581;SDS011;66726;52.388;9.986;2023-12-29T14:13:43;8.47;;;5.80;;
77581;SDS011;66726;52.388;9.986;2023-12-29T14:16:15;10.90;;;6.57;;
77581;SDS011;66726;52.388;9.986;2023-12-29T14:18:52;3.87;;;2.87;;
77581;SDS011;66726;52.388;9.986;2023-12-29T14:21:26;8.53;;;5.40;;
77581;SDS011;66726;52.388;9.986;2023-12-29T14:24:00;4.07;;;2.40;;
77581;SDS011;66726;52.388;9.986;2023-12-29T14:26:36;3.07;;;1.90;;
77581;SDS011;66726;52.388;9.986;2023-12-29T14:29:07;3.37;;;3.07;;
77581;SDS011;66726;52.388;9.986;2023-12-29T14:31:38;3.40;;;2.13;;
77581;SDS011;66726;52.388;9.986;2023-12-29T14:34:09;3.47;;;1.63;;
77581;SDS011;66726;52.388;9.986;2023-12-29T14:36:39;4.60;;;2.90;;
77581;SDS011;66726;52.388;9.986;2023-12-29T14:39:09;3.97;;;2.00;;
77581;SDS011;66726;52.388;9.986;2023-12-29T14:41:38;2.83;;;2.20;;
77581;SDS011;66726;52.388;9.986;2023-12-29T14:44:06;2.60;;;1.80;;
77581;SDS011;66726;52.388;9.986;2023-12-29T14:46:35;2.90;;;2.17;;
77581;SDS011;66726;52.388;9.986;2023-12-29T14:49:05;3.57;;;2.30;;
77581;SDS011;66726;52.388;9.986;2023-12-29T14:51:34;3.93;;;2.07;;
77581;SDS011;66726;52.388;9.986;2023-12-29T14:54:03;2.97;;;1.97;;
77581;SDS011;66726;52.388;9.986;2023-12-29T14:56:31;6.13;;;2.70;;
77581;SDS011;66726;52.388;9.986;2023-12-29T14:58:59;4.30;;;2.17;;
77581;SDS011;66726;52.388;9.986;2023-12-29T15:01:30;5.50;;;2.00;;
77581;SDS011;66726;52.388;9.986;2023-12-29T15:03:58;4.07;;;2.23;;
77581;SDS011;66726;52.388;9.986;2023-12-29T15:06:28;3.70;;;2.17;;